Ana Sayfa
METAR-TAF:

METAR-TAF

Havaalanları :

Del Rio International Airport

Del Rio, Teksas, Amerika Birleşik Devletleri

Enlem: 29-22-29N, Boylam: 100-55-25W, yükseklik: 304 m

Güncel hava durumu gözlemi

Rapor saat 11:53 UTC de 56 dakika önce yapıldı.
Rüzgar batıdan 5 kt
Sıcaklık 13°C
Nem 88%
Basınç 1011 hPa
Görüş mesafesi: 11.3 km
Açık gökyüzü

METAR: KDRT 091153Z AUTO 28005KT 7SM CLR 13/11 A2984 RMK AO2 SLP092 T01330111 10183 20133 50004 $

Saat: 06:49 (12:49 UTC)

Tahmin

Rapor saat 11:20 UTC de 1 saat ve 29 dakika önce yapıldı.
Ayın 09'si saat 12 UTC'den ayın 10'si saat 12 UTC'ye kadar geçerli Tahmin
Rüzgar kuzey/kuzeybatıdan 5 kt
Görüş mesafesi: 10 km
25000 ft yükseklikte parçalı çok bulutlu
Ayın 10'si saat 0300 UTC'den
Rüzgar kuzey/kuzeybatıdan 14 kt ve 24 kt'a kadar ani rüzgarlar
Görüş mesafesi: 10 km
7000 ft yükseklikte parçalı çok bulutlu
Civarda sağanaklar

TAF: KDRT 091120Z 0912/1012 34005KT P6SM BKN250 FM100300 33014G24KT P6SM VCSH BKN070

4.000'den fazla havaalanı için hava durumu gözlemleri ve tahminleri (METAR ve TAF raporları).

Kullanılabilir istasyonlar harita üzerinde sarı ve kırmızı noktalarla gösterilir.

İstasyonun adını görmek için fareyi noktanın üzerinde gezdirin.

Sonrasında hava gözlem ve tahminlerini görmek için tıklayın.

Haritayı değiştirmek için: yaklaştırmak için siyah artı işaretli yeşil düğmeye ve uzaklaştırmak için de eksi işaretli düğmeye hızla tıklayın; bitişik haritalar için yeşil okları kullanın.


METAR-TAF: